Genco Auvergne — V7ES3 — position and weather

sailwx.info

Track history (hours):
 
Tides and Currents Weather Stations Pressure Air Temp Water Temp Dewpoint Dewpoint Depression Visibility Wind Speed Wind Dir Waves Ship Positions

Genco Auvergne

Last reported at 2017-Jun-19 19:59 UTC. Time now 2017-Jun-27 12:08 UTC.
Position N 48°31' W 126°19'.

Length 190 m; draft 12.9 m.

Type: Cargo ship. MMSI: 538002570.

Date/timePositionNaut miles runAvg speedWind from/ knotsBaromVisibWave heightAir tempDewpointWater temp
2017-Jun-19 19:59N 48°31' W 126°19'5 9.2
2017-Jun-19 19:29N 48°31' W 126°12'5 9.6
2017-Jun-19 18:57N 48°31' W 126°05'4 9.7
2017-Jun-19 18:30N 48°31' W 125°58'5 9.7
2017-Jun-19 18:00N 48°31' W 125°51'510.2
2017-Jun-19 17:30N 48°31' W 125°43'5 9.5
2017-Jun-19 17:00N 48°31' W 125°36'3 6.1
2017-Jun-19 16:30N 48°31' W 125°31'3 5.3
2017-Jun-19 16:00N 48°31' W 125°27'3 6.4
2017-Jun-19 15:30N 48°32' W 125°22'4 7.6
2017-Jun-19 15:00N 48°31' W 125°17'1110.7
2017-Jun-19 14:00N 48°31' W 125°00'510.4
2017-Jun-19 13:30N 48°31' W 124°53'510.7
2017-Jun-19 13:00N 48°31' W 124°45'510.7
2017-Jun-19 12:30N 48°29' W 124°37'611.8
2017-Jun-19 12:00N 48°26' W 124°29'612.6
2017-Jun-19 11:30N 48°24' W 124°20'612.6
2017-Jun-19 11:00N 48°22' W 124°11'612.4
2017-Jun-19 10:30N 48°19' W 124°03'612.0
2017-Jun-19 10:00N 48°17' W 123°54'612.0
2017-Jun-19 09:30N 48°17' W 123°45'611.6
2017-Jun-19 09:00N 48°16' W 123°36'510.4
2017-Jun-19 08:30N 48°17' W 123°29'510.3
2017-Jun-19 08:00N 48°21' W 123°25'4 8.1
2017-Jun-19 07:30N 48°23' W 123°19'5 9.8
2017-Jun-19 07:00N 48°25' W 123°13'611.1
2017-Jun-19 06:30N 48°30' W 123°13'510.6
2017-Jun-19 06:00N 48°36' W 123°14'510.7
2017-Jun-19 05:30N 48°41' W 123°16'5 9.6
2017-Jun-19 05:00N 48°44' W 123°10'510.4
2017-Jun-19 04:30N 48°46' W 123°03'4 8.2
2017-Jun-19 04:00N 48°50' W 123°02'611.0
2017-Jun-19 03:29N 48°54' W 123°08'511.1
2017-Jun-19 03:00N 48°58' W 123°14'611.1
2017-Jun-19 02:30N 49°02' W 123°20'510.5
2017-Jun-19 02:00N 49°06' W 123°24'611.4
2017-Jun-19 01:30N 49°12' W 123°22'611.2
2017-Jun-19 01:00N 49°17' W 123°19'510.1
2017-Jun-19 00:30N 49°19' W 123°12'4 8.5
2017-Jun-19 00:00N 49°18' W 123°06'1 2.1
2017-Jun-18 23:29N 49°18' W 123°04'0 0.0
2017-Jun-18 22:59N 49°18' W 123°04'0 0.0
2017-Jun-18 22:29N 49°18' W 123°04'0 0.0
2017-Jun-18 21:59N 49°18' W 123°04'0 0.0
2017-Jun-18 21:29N 49°18' W 123°04'0 0.0
2017-Jun-18 20:59N 49°18' W 123°04'0 0.0
2017-Jun-18 20:29N 49°18' W 123°04'0 0.0
2017-Jun-18 19:59N 49°18' W 123°04'0 0.0
2017-Jun-18 19:29N 49°18' W 123°04'0 0.0
2017-Jun-18 18:59N 49°18' W 123°04'0 0.0
2017-Jun-18 18:29N 49°18' W 123°04'0 0.0
2017-Jun-18 17:59N 49°18' W 123°04'0 0.0
2017-Jun-18 17:29N 49°18' W 123°04'0 0.0
2017-Jun-18 16:59N 49°18' W 123°04'0 0.0
2017-Jun-18 16:29N 49°18' W 123°04'0 0.0
2017-Jun-18 15:59N 49°18' W 123°04'0 0.0
2017-Jun-18 15:29N 49°18' W 123°04'0 0.0
2017-Jun-18 14:59N 49°18' W 123°04'0 0.0
2017-Jun-18 13:59N 49°18' W 123°04'0 0.0
2017-Jun-18 13:29N 49°18' W 123°04'0 0.0
2017-Jun-18 12:59N 49°18' W 123°04'0 0.0
2017-Jun-18 12:29N 49°18' W 123°04'0 0.0
2017-Jun-18 11:59N 49°18' W 123°04'0 0.0
2017-Jun-18 11:29N 49°18' W 123°04'0 0.0
2017-Jun-18 10:59N 49°18' W 123°04'0 0.0
2017-Jun-18 10:29N 49°18' W 123°04'0 0.0
2017-Jun-18 09:59N 49°18' W 123°04'0 0.0
2017-Jun-18 09:29N 49°18' W 123°04'0 0.0
2017-Jun-18 08:59N 49°18' W 123°04'0 0.0
2017-Jun-18 08:29N 49°18' W 123°04'0 0.0
2017-Jun-18 07:59N 49°18' W 123°04'0 0.0
2017-Jun-18 07:29N 49°18' W 123°04'0 0.0
2017-Jun-18 06:59N 49°18' W 123°04'0 0.0
2017-Jun-18 06:29N 49°18' W 123°04'0 0.0
2017-Jun-18 05:59N 49°18' W 123°04'0 0.0
2017-Jun-18 05:29N 49°18' W 123°04'0 0.0
2017-Jun-18 04:59N 49°18' W 123°04'0 0.0
2017-Jun-18 04:29N 49°18' W 123°04'0 0.0
2017-Jun-18 03:59N 49°18' W 123°04'0 0.0
2017-Jun-18 03:29N 49°18' W 123°04'0 0.0
2017-Jun-18 02:59N 49°18' W 123°04'0 0.0
2017-Jun-18 02:26N 49°18' W 123°04'0 0.0
2017-Jun-18 01:59N 49°18' W 123°04'0 0.0
2017-Jun-18 01:29N 49°18' W 123°04'0 0.0
2017-Jun-18 00:59N 49°18' W 123°04'0 0.0
2017-Jun-18 00:29N 49°18' W 123°04'0 0.0
2017-Jun-17 23:59N 49°18' W 123°04'0 0.0
2017-Jun-17 23:29N 49°18' W 123°04'0 0.0
2017-Jun-17 22:59N 49°18' W 123°04'0 0.0
2017-Jun-17 22:29N 49°18' W 123°04'0 0.0
2017-Jun-17 21:59N 49°18' W 123°04'0 0.0
2017-Jun-17 21:29N 49°18' W 123°04'0 0.0
2017-Jun-17 20:59N 49°18' W 123°04'0 0.0
2017-Jun-17 20:29N 49°18' W 123°04'0 0.0
2017-Jun-17 19:59N 49°18' W 123°04'0 0.0
2017-Jun-17 19:29N 49°18' W 123°04'0 0.0
2017-Jun-17 18:59N 49°18' W 123°04'0 0.0
2017-Jun-17 18:29N 49°18' W 123°04'0 0.0
2017-Jun-17 17:59N 49°18' W 123°04'0 0.0
2017-Jun-17 17:29N 49°18' W 123°04'0 0.0
2017-Jun-17 16:59N 49°18' W 123°04'0 0.0
2017-Jun-17 16:29N 49°18' W 123°04'0 0.0
2017-Jun-17 15:59N 49°18' W 123°04'0 0.0
2017-Jun-17 15:29N 49°18' W 123°04'0 0.0
2017-Jun-17 14:59N 49°18' W 123°04'0 0.0
2017-Jun-17 14:29N 49°18' W 123°04'0 0.0
2017-Jun-17 13:29N 49°18' W 123°04'0 0.0
2017-Jun-17 12:59N 49°18' W 123°04'0 0.0
2017-Jun-17 12:29N 49°18' W 123°04'0 0.0
2017-Jun-17 11:59N 49°18' W 123°04'0 0.0
2017-Jun-17 11:29N 49°18' W 123°04'0 0.0
2017-Jun-17 10:59N 49°18' W 123°04'0 0.0
2017-Jun-17 10:29N 49°18' W 123°04'0 0.0
2017-Jun-17 09:59N 49°18' W 123°04'0 0.0
2017-Jun-17 09:26N 49°18' W 123°04'0 0.0
2017-Jun-17 08:59N 49°18' W 123°04'0 0.0
2017-Jun-17 08:29N 49°18' W 123°04'0 0.0
2017-Jun-17 07:59N 49°18' W 123°04'0 0.0
2017-Jun-17 07:29N 49°18' W 123°04'0 0.0
2017-Jun-17 06:59N 49°18' W 123°04'0 0.0
2017-Jun-17 06:29N 49°18' W 123°04'0 0.0
2017-Jun-17 05:59N 49°18' W 123°04'0 0.0
2017-Jun-17 05:29N 49°18' W 123°04'0 0.0
2017-Jun-17 04:59N 49°18' W 123°04'0 0.0
2017-Jun-17 04:29N 49°18' W 123°04'0 0.0
2017-Jun-17 03:59N 49°18' W 123°04'0 0.0
2017-Jun-17 03:29N 49°18' W 123°04'0 0.0
2017-Jun-17 02:59N 49°18' W 123°04'0 0.0
2017-Jun-17 02:29N 49°18' W 123°04'0 0.0
2017-Jun-17 01:59N 49°18' W 123°04'0 0.0
2017-Jun-17 01:29N 49°18' W 123°04'0 0.0
2017-Jun-17 01:00N 49°18' W 123°04'1 1.0
2017-Jun-17 00:30N 49°18' W 123°05'2 4.7
2017-Jun-17 00:00N 49°19' W 123°08'4 8.6
2017-Jun-16 23:30N 49°18' W 123°15'5 9.6
2017-Jun-16 23:00N 49°14' W 123°19'510.6
2017-Jun-16 22:30N 49°09' W 123°20'510.6
2017-Jun-16 22:00N 49°04' W 123°20'511.0
2017-Jun-16 21:30N 48°60' W 123°14'611.1
2017-Jun-16 21:00N 48°56' W 123°08'611.4
2017-Jun-16 20:30N 48°52' W 123°03'5 9.4
2017-Jun-16 20:00N 48°47' W 123°00'510.7
2017-Jun-16 19:30N 48°44' W 123°07'510.5
2017-Jun-16 19:00N 48°43' W 123°15'611.4
2017-Jun-16 18:30N 48°48' W 123°20'1011.2
2017-Jun-16 17:39N 48°55' W 123°30'211.7
2017-Jun-16 17:29N 48°56' W 123°32'610.8
2017-Jun-16 16:56N 49°01' W 123°38'2 5.0
2017-Jun-16 16:28N 49°02' W 123°41'0 0.0
2017-Jun-16 12:42N 49°02' W 123°41'0 0.0
2017-Jun-16 09:54N 49°02' W 123°41'  
2017-Jun-10 19:36N 49°02' W 123°41'0 0.1
2017-Jun-10 19:30N 49°02' W 123°41'2 2.6
2017-Jun-10 18:47N 49°01' W 123°38'2 6.6
2017-Jun-10 18:31N 48°60' W 123°36'510.3
2017-Jun-10 18:00N 48°56' W 123°31'510.8
2017-Jun-10 17:30N 48°52' W 123°25'5 9.9
2017-Jun-10 17:00N 48°49' W 123°20'510.7
2017-Jun-10 16:30N 48°44' W 123°16'713.2
2017-Jun-10 16:00N 48°45' W 123°06'510.2
2017-Jun-10 15:29N 48°50' W 123°02'613.1
2017-Jun-10 15:00N 48°54' W 123°09'1212.0
2017-Jun-10 14:00N 49°03' W 123°21'510.7
2017-Jun-10 13:30N 49°08' W 123°23'611.5
2017-Jun-10 13:00N 49°14' W 123°21'5 9.3
2017-Jun-10 12:30N 49°17' W 123°17'3 6.7
2017-Jun-10 12:01N 49°17' W 123°12'0 0.2
2017-Jun-10 11:30N 49°17' W 123°12'0 0.0
2017-Jun-10 11:00N 49°17' W 123°12'0 0.0
2017-Jun-10 10:30N 49°17' W 123°12'0 0.1
2017-Jun-10 10:00N 49°17' W 123°12'0 0.1
2017-Jun-10 09:30N 49°17' W 123°12'0 0.0
2017-Jun-10 09:00N 49°17' W 123°12'0 0.1
2017-Jun-10 08:30N 49°17' W 123°12'0 0.0
2017-Jun-10 08:00N 49°17' W 123°12'0 0.0
2017-Jun-10 07:27N 49°17' W 123°12'0 0.1
2017-Jun-10 07:00N 49°17' W 123°12'0 0.0
2017-Jun-10 06:24N 49°17' W 123°12'0 0.0
2017-Jun-10 06:00N 49°17' W 123°12'0 0.1
2017-Jun-10 05:21N 49°17' W 123°12'0 0.1
2017-Jun-10 04:57N 49°17' W 123°12'0 0.2
2017-Jun-10 04:27N 49°17' W 123°12'0 0.1
2017-Jun-10 04:00N 49°17' W 123°12'0 0.1
2017-Jun-10 03:30N 49°17' W 123°12'0 0.1
2017-Jun-10 02:57N 49°17' W 123°12'0 0.1
2017-Jun-10 02:30N 49°17' W 123°12'0 0.1
2017-Jun-10 02:00N 49°17' W 123°12'0 0.0
2017-Jun-10 01:30N 49°17' W 123°12'0 0.0
2017-Jun-10 01:00N 49°17' W 123°12'0 0.0
2017-Jun-10 00:30N 49°17' W 123°12'0 0.0
2017-Jun-10 00:00N 49°17' W 123°12'0 0.0
2017-Jun-09 23:30N 49°17' W 123°12'0 0.0
2017-Jun-09 22:54N 49°17' W 123°12'0 0.0
2017-Jun-09 22:30N 49°17' W 123°12'0 0.0
2017-Jun-09 22:00N 49°17' W 123°12'0 0.0
2017-Jun-09 21:30N 49°17' W 123°12'0 0.1
2017-Jun-09 21:00N 49°17' W 123°12'0 0.0
2017-Jun-09 20:30N 49°17' W 123°12'0 0.0
2017-Jun-09 20:00N 49°17' W 123°12'  
Track history (hours):
 
Tides and Currents Weather Stations Pressure Air Temp Water Temp Dewpoint Dewpoint Depression Visibility Wind Speed Wind Dir Waves Ship Positions

Genco Auvergne

Last reported at 2017-Jun-19 19:59 UTC. Time now 2017-Jun-27 12:08 UTC.
Position N 48°31' W 126°19'.

Length 190 m; draft 12.9 m.

Type: Cargo ship. MMSI: 538002570.

Date/timePositionNaut miles runAvg speedWind from/ knotsBaromVisibWave heightAir tempDewpointWater temp
2017-Jun-19 19:59N 48°31' W 126°19'5 9.2
2017-Jun-19 19:29N 48°31' W 126°12'5 9.6
2017-Jun-19 18:57N 48°31' W 126°05'4 9.7
2017-Jun-19 18:30N 48°31' W 125°58'5 9.7
2017-Jun-19 18:00N 48°31' W 125°51'510.2
2017-Jun-19 17:30N 48°31' W 125°43'5 9.5
2017-Jun-19 17:00N 48°31' W 125°36'3 6.1
2017-Jun-19 16:30N 48°31' W 125°31'3 5.3
2017-Jun-19 16:00N 48°31' W 125°27'3 6.4
2017-Jun-19 15:30N 48°32' W 125°22'4 7.6
2017-Jun-19 15:00N 48°31' W 125°17'1110.7
2017-Jun-19 14:00N 48°31' W 125°00'510.4
2017-Jun-19 13:30N 48°31' W 124°53'510.7
2017-Jun-19 13:00N 48°31' W 124°45'510.7
2017-Jun-19 12:30N 48°29' W 124°37'611.8
2017-Jun-19 12:00N 48°26' W 124°29'612.6
2017-Jun-19 11:30N 48°24' W 124°20'612.6
2017-Jun-19 11:00N 48°22' W 124°11'612.4
2017-Jun-19 10:30N 48°19' W 124°03'612.0
2017-Jun-19 10:00N 48°17' W 123°54'612.0
2017-Jun-19 09:30N 48°17' W 123°45'611.6
2017-Jun-19 09:00N 48°16' W 123°36'510.4
2017-Jun-19 08:30N 48°17' W 123°29'510.3
2017-Jun-19 08:00N 48°21' W 123°25'4 8.1
2017-Jun-19 07:30N 48°23' W 123°19'5 9.8
2017-Jun-19 07:00N 48°25' W 123°13'611.1
2017-Jun-19 06:30N 48°30' W 123°13'510.6
2017-Jun-19 06:00N 48°36' W 123°14'510.7
2017-Jun-19 05:30N 48°41' W 123°16'5 9.6
2017-Jun-19 05:00N 48°44' W 123°10'510.4
2017-Jun-19 04:30N 48°46' W 123°03'4 8.2
2017-Jun-19 04:00N 48°50' W 123°02'611.0
2017-Jun-19 03:29N 48°54' W 123°08'511.1
2017-Jun-19 03:00N 48°58' W 123°14'611.1
2017-Jun-19 02:30N 49°02' W 123°20'510.5
2017-Jun-19 02:00N 49°06' W 123°24'611.4
2017-Jun-19 01:30N 49°12' W 123°22'611.2
2017-Jun-19 01:00N 49°17' W 123°19'510.1
2017-Jun-19 00:30N 49°19' W 123°12'4 8.5
2017-Jun-19 00:00N 49°18' W 123°06'1 2.1
2017-Jun-18 23:29N 49°18' W 123°04'0 0.0
2017-Jun-18 22:59N 49°18' W 123°04'0 0.0
2017-Jun-18 22:29N 49°18' W 123°04'0 0.0
2017-Jun-18 21:59N 49°18' W 123°04'0 0.0
2017-Jun-18 21:29N 49°18' W 123°04'0 0.0
2017-Jun-18 20:59N 49°18' W 123°04'0 0.0
2017-Jun-18 20:29N 49°18' W 123°04'0 0.0
2017-Jun-18 19:59N 49°18' W 123°04'0 0.0
2017-Jun-18 19:29N 49°18' W 123°04'0 0.0
2017-Jun-18 18:59N 49°18' W 123°04'0 0.0
2017-Jun-18 18:29N 49°18' W 123°04'0 0.0
2017-Jun-18 17:59N 49°18' W 123°04'0 0.0
2017-Jun-18 17:29N 49°18' W 123°04'0 0.0
2017-Jun-18 16:59N 49°18' W 123°04'0 0.0
2017-Jun-18 16:29N 49°18' W 123°04'0 0.0
2017-Jun-18 15:59N 49°18' W 123°04'0 0.0
2017-Jun-18 15:29N 49°18' W 123°04'0 0.0
2017-Jun-18 14:59N 49°18' W 123°04'0 0.0
2017-Jun-18 13:59N 49°18' W 123°04'0 0.0
2017-Jun-18 13:29N 49°18' W 123°04'0 0.0
2017-Jun-18 12:59N 49°18' W 123°04'0 0.0
2017-Jun-18 12:29N 49°18' W 123°04'0 0.0
2017-Jun-18 11:59N 49°18' W 123°04'0 0.0
2017-Jun-18 11:29N 49°18' W 123°04'0 0.0
2017-Jun-18 10:59N 49°18' W 123°04'0 0.0
2017-Jun-18 10:29N 49°18' W 123°04'0 0.0
2017-Jun-18 09:59N 49°18' W 123°04'0 0.0
2017-Jun-18 09:29N 49°18' W 123°04'0 0.0
2017-Jun-18 08:59N 49°18' W 123°04'0 0.0
2017-Jun-18 08:29N 49°18' W 123°04'0 0.0
2017-Jun-18 07:59N 49°18' W 123°04'0 0.0
2017-Jun-18 07:29N 49°18' W 123°04'0 0.0
2017-Jun-18 06:59N 49°18' W 123°04'0 0.0
2017-Jun-18 06:29N 49°18' W 123°04'0 0.0
2017-Jun-18 05:59N 49°18' W 123°04'0 0.0
2017-Jun-18 05:29N 49°18' W 123°04'0 0.0
2017-Jun-18 04:59N 49°18' W 123°04'0 0.0
2017-Jun-18 04:29N 49°18' W 123°04'0 0.0
2017-Jun-18 03:59N 49°18' W 123°04'0 0.0
2017-Jun-18 03:29N 49°18' W 123°04'0 0.0
2017-Jun-18 02:59N 49°18' W 123°04'0 0.0
2017-Jun-18 02:26N 49°18' W 123°04'0 0.0
2017-Jun-18 01:59N 49°18' W 123°04'0 0.0
2017-Jun-18 01:29N 49°18' W 123°04'0 0.0
2017-Jun-18 00:59N 49°18' W 123°04'0 0.0
2017-Jun-18 00:29N 49°18' W 123°04'0 0.0
2017-Jun-17 23:59N 49°18' W 123°04'0 0.0
2017-Jun-17 23:29N 49°18' W 123°04'0 0.0
2017-Jun-17 22:59N 49°18' W 123°04'0 0.0
2017-Jun-17 22:29N 49°18' W 123°04'0 0.0
2017-Jun-17 21:59N 49°18' W 123°04'0 0.0
2017-Jun-17 21:29N 49°18' W 123°04'0 0.0
2017-Jun-17 20:59N 49°18' W 123°04'0 0.0
2017-Jun-17 20:29N 49°18' W 123°04'0 0.0
2017-Jun-17 19:59N 49°18' W 123°04'0 0.0
2017-Jun-17 19:29N 49°18' W 123°04'0 0.0
2017-Jun-17 18:59N 49°18' W 123°04'0 0.0
2017-Jun-17 18:29N 49°18' W 123°04'0 0.0
2017-Jun-17 17:59N 49°18' W 123°04'0 0.0
2017-Jun-17 17:29N 49°18' W 123°04'0 0.0
2017-Jun-17 16:59N 49°18' W 123°04'0 0.0
2017-Jun-17 16:29N 49°18' W 123°04'0 0.0
2017-Jun-17 15:59N 49°18' W 123°04'0 0.0
2017-Jun-17 15:29N 49°18' W 123°04'0 0.0
2017-Jun-17 14:59N 49°18' W 123°04'0 0.0
2017-Jun-17 14:29N 49°18' W 123°04'0 0.0
2017-Jun-17 13:29N 49°18' W 123°04'0 0.0
2017-Jun-17 12:59N 49°18' W 123°04'0 0.0
2017-Jun-17 12:29N 49°18' W 123°04'0 0.0
2017-Jun-17 11:59N 49°18' W 123°04'0 0.0
2017-Jun-17 11:29N 49°18' W 123°04'0 0.0
2017-Jun-17 10:59N 49°18' W 123°04'0 0.0
2017-Jun-17 10:29N 49°18' W 123°04'0 0.0
2017-Jun-17 09:59N 49°18' W 123°04'0 0.0
2017-Jun-17 09:26N 49°18' W 123°04'0 0.0
2017-Jun-17 08:59N 49°18' W 123°04'0 0.0
2017-Jun-17 08:29N 49°18' W 123°04'0 0.0
2017-Jun-17 07:59N 49°18' W 123°04'0 0.0
2017-Jun-17 07:29N 49°18' W 123°04'0 0.0
2017-Jun-17 06:59N 49°18' W 123°04'0 0.0
2017-Jun-17 06:29N 49°18' W 123°04'0 0.0
2017-Jun-17 05:59N 49°18' W 123°04'0 0.0
2017-Jun-17 05:29N 49°18' W 123°04'0 0.0
2017-Jun-17 04:59N 49°18' W 123°04'0 0.0
2017-Jun-17 04:29N 49°18' W 123°04'0 0.0
2017-Jun-17 03:59N 49°18' W 123°04'0 0.0
2017-Jun-17 03:29N 49°18' W 123°04'0 0.0
2017-Jun-17 02:59N 49°18' W 123°04'0 0.0
2017-Jun-17 02:29N 49°18' W 123°04'0 0.0
2017-Jun-17 01:59N 49°18' W 123°04'0 0.0
2017-Jun-17 01:29N 49°18' W 123°04'0 0.0
2017-Jun-17 01:00N 49°18' W 123°04'1 1.0
2017-Jun-17 00:30N 49°18' W 123°05'2 4.7
2017-Jun-17 00:00N 49°19' W 123°08'4 8.6
2017-Jun-16 23:30N 49°18' W 123°15'5 9.6
2017-Jun-16 23:00N 49°14' W 123°19'510.6
2017-Jun-16 22:30N 49°09' W 123°20'510.6
2017-Jun-16 22:00N 49°04' W 123°20'511.0
2017-Jun-16 21:30N 48°60' W 123°14'611.1
2017-Jun-16 21:00N 48°56' W 123°08'611.4
2017-Jun-16 20:30N 48°52' W 123°03'5 9.4
2017-Jun-16 20:00N 48°47' W 123°00'510.7
2017-Jun-16 19:30N 48°44' W 123°07'510.5
2017-Jun-16 19:00N 48°43' W 123°15'611.4
2017-Jun-16 18:30N 48°48' W 123°20'1011.2
2017-Jun-16 17:39N 48°55' W 123°30'211.7
2017-Jun-16 17:29N 48°56' W 123°32'610.8
2017-Jun-16 16:56N 49°01' W 123°38'2 5.0
2017-Jun-16 16:28N 49°02' W 123°41'0 0.0
2017-Jun-16 12:42N 49°02' W 123°41'0 0.0
2017-Jun-16 09:54N 49°02' W 123°41'  
2017-Jun-10 19:36N 49°02' W 123°41'0 0.1
2017-Jun-10 19:30N 49°02' W 123°41'2 2.6
2017-Jun-10 18:47N 49°01' W 123°38'2 6.6
2017-Jun-10 18:31N 48°60' W 123°36'510.3
2017-Jun-10 18:00N 48°56' W 123°31'510.8
2017-Jun-10 17:30N 48°52' W 123°25'5 9.9
2017-Jun-10 17:00N 48°49' W 123°20'510.7
2017-Jun-10 16:30N 48°44' W 123°16'713.2
2017-Jun-10 16:00N 48°45' W 123°06'510.2
2017-Jun-10 15:29N 48°50' W 123°02'613.1
2017-Jun-10 15:00N 48°54' W 123°09'1212.0
2017-Jun-10 14:00N 49°03' W 123°21'510.7
2017-Jun-10 13:30N 49°08' W 123°23'611.5
2017-Jun-10 13:00N 49°14' W 123°21'5 9.3
2017-Jun-10 12:30N 49°17' W 123°17'3 6.7
2017-Jun-10 12:01N 49°17' W 123°12'0 0.2
2017-Jun-10 11:30N 49°17' W 123°12'0 0.0
2017-Jun-10 11:00N 49°17' W 123°12'0 0.0
2017-Jun-10 10:30N 49°17' W 123°12'0 0.1
2017-Jun-10 10:00N 49°17' W 123°12'0 0.1
2017-Jun-10 09:30N 49°17' W 123°12'0 0.0
2017-Jun-10 09:00N 49°17' W 123°12'0 0.1
2017-Jun-10 08:30N 49°17' W 123°12'0 0.0
2017-Jun-10 08:00N 49°17' W 123°12'0 0.0
2017-Jun-10 07:27N 49°17' W 123°12'0 0.1
2017-Jun-10 07:00N 49°17' W 123°12'0 0.0
2017-Jun-10 06:24N 49°17' W 123°12'0 0.0
2017-Jun-10 06:00N 49°17' W 123°12'0 0.1
2017-Jun-10 05:21N 49°17' W 123°12'0 0.1
2017-Jun-10 04:57N 49°17' W 123°12'0 0.2
2017-Jun-10 04:27N 49°17' W 123°12'0 0.1
2017-Jun-10 04:00N 49°17' W 123°12'0 0.1
2017-Jun-10 03:30N 49°17' W 123°12'0 0.1
2017-Jun-10 02:57N 49°17' W 123°12'0 0.1
2017-Jun-10 02:30N 49°17' W 123°12'0 0.1
2017-Jun-10 02:00N 49°17' W 123°12'0 0.0
2017-Jun-10 01:30N 49°17' W 123°12'0 0.0
2017-Jun-10 01:00N 49°17' W 123°12'0 0.0
2017-Jun-10 00:30N 49°17' W 123°12'0 0.0
2017-Jun-10 00:00N 49°17' W 123°12'0 0.0
2017-Jun-09 23:30N 49°17' W 123°12'0 0.0
2017-Jun-09 22:54N 49°17' W 123°12'0 0.0
2017-Jun-09 22:30N 49°17' W 123°12'0 0.0
2017-Jun-09 22:00N 49°17' W 123°12'0 0.0
2017-Jun-09 21:30N 49°17' W 123°12'0 0.1
2017-Jun-09 21:00N 49°17' W 123°12'0 0.0
2017-Jun-09 20:30N 49°17' W 123°12'0 0.0
2017-Jun-09 20:00N 49°17' W 123°12'  

Dump ship's entire track history